Accueil
METAR-TAF:

METAR-TAF

Aéroports :

Aéroport de Vérone

Vérone, Italie

latitude: 45-23N, longitude: 010-52E, altitude: 67 m

Observation

Le bulletin a été fait il y a 35 minutes, à 00:50 UTC
Vent 3 kt de nord-ouest
Température 4°C
Humidité 100%
Pression 1007 hPa
Visibilité 10 km ou plus
pas de nuages en-dessous de 1500 mètres et pas de cumulonimbus.

METAR: LIPX 180050Z 32003KT CAVOK 04/04 Q1007

Heure: 02:25 (01:25 UTC)

Prévision

Le bulletin a été fait il y a 2 heures et 25 minutes, à 23:00 UTC
Prévision valable du 18 à 00 UTC au 18 à 09 UTC
Vent 7 kt de ouest/nord-ouest
Visibilité: 8000 m
Nuages épars à une hauteur de 6000 ft

TAF: LIPX 172300Z 1800/1809 30007KT 8000 SCT060

Observations et prévisions météorologiques de plus de 4000 aéroports (messages METAR et TAF).

Les stations disponibles sont représentées par des disques jaunes et rouges sur la carte.

Passer la souris dessus pour voir le nom de la station.

Cliquer dessus pour voir les observations et prévisions météorologiques.

Pour changer de carte: cliquez sur les boutons verts avec une croix noire pour zoomer, sur le bouton vert avec un tiret pour effectuer un zoom arrière, ou sur les flèches vertes pour les cartes adjacentes.


METAR-TAF: